Time;durP1;ratioP1;P1;durP2;ratioP2;P2;SDS_P1;SDS_P2;PMS_P1;PMS_P2;Temp;Humidity;BMP_temperature;BMP_pressure;BME280_temperature;BME280_humidity;BME280_pressure;Samples;Min_cycle;Max_cycle;Signal;HPM_P1;HPM_P2
2020/12/05 00:00:54;;;;;;;47.75;23.02;;;20.80;40.40;;;;;;5071740;28;20397;-69
2020/12/05 00:03:21;;;;;;;39.38;21.88;;;20.80;40.70;;;;;;5073270;28;20024;-69
2020/12/05 00:05:47;;;;;;;53.53;23.58;;;20.70;40.80;;;;;;5083712;28;20036;-68
2020/12/05 00:08:14;;;;;;;46.78;24.38;;;20.60;41.30;;;;;;5065249;28;20029;-68
2020/12/05 00:10:40;;;;;;;38.30;21.92;;;20.50;41.60;;;;;;5076096;28;20016;-68
2020/12/05 00:13:07;;;;;;;39.33;22.30;;;20.50;41.70;;;;;;5062651;28;20071;-71
2020/12/05 00:15:33;;;;;;;43.80;21.98;;;20.40;41.70;;;;;;5070761;28;20070;-68
2020/12/05 00:17:59;;;;;;;34.90;20.83;;;20.40;42.10;;;;;;5074026;28;20021;-71
2020/12/05 00:20:26;;;;;;;40.70;19.48;;;20.30;42.10;;;;;;5070547;28;20017;-70
2020/12/05 00:22:52;;;;;;;39.85;19.92;;;20.20;41.70;;;;;;5067899;28;20025;-69
2020/12/05 00:25:19;;;;;;;40.45;20.23;;;20.20;41.70;;;;;;5070889;28;20304;-70
2020/12/05 00:27:45;;;;;;;33.78;14.73;;;20.10;42.00;;;;;;5068993;28;20450;-70
2020/12/05 00:30:12;;;;;;;28.55;14.05;;;20.00;41.10;;;;;;5064573;28;20041;-70
2020/12/05 00:32:38;;;;;;;28.33;13.73;;;19.80;41.00;;;;;;5070225;28;20017;-70
2020/12/05 00:35:05;;;;;;;23.33;12.77;;;19.70;41.20;;;;;;5070732;28;20039;-70
2020/12/05 00:37:32;;;;;;;29.08;12.82;;;19.50;41.50;;;;;;5072672;28;20029;-70
2020/12/05 00:39:59;;;;;;;37.60;13.85;;;19.40;41.40;;;;;;5069787;28;20033;-70
2020/12/05 00:42:26;;;;;;;24.67;13.25;;;19.20;41.50;;;;;;5070379;28;20104;-70
2020/12/05 00:44:53;;;;;;;25.98;14.60;;;19.10;41.70;;;;;;5072311;28;20029;-70
2020/12/05 00:47:19;;;;;;;26.98;12.43;;;18.90;41.70;;;;;;5070867;28;20028;-70
2020/12/05 00:49:46;;;;;;;25.70;11.90;;;18.70;41.80;;;;;;5089726;28;20407;-71
2020/12/05 00:52:12;;;;;;;23.67;12.50;;;18.50;42.20;;;;;;5079893;28;20119;-70
2020/12/05 00:54:39;;;;;;;30.35;14.35;;;18.30;42.40;;;;;;5096112;28;20036;-70
2020/12/05 00:57:05;;;;;;;38.42;14.05;;;18.20;42.70;;;;;;5077043;28;20465;-70
2020/12/05 00:59:32;;;;;;;34.10;12.73;;;18.10;42.90;;;;;;5057767;28;20120;-70
2020/12/05 01:01:58;;;;;;;27.70;12.82;;;18.00;42.60;;;;;;5072883;28;20021;-70
2020/12/05 01:04:25;;;;;;;28.23;13.20;;;17.80;42.70;;;;;;5075495;28;20063;-70
2020/12/05 01:06:51;;;;;;;26.60;11.63;;;17.60;42.90;;;;;;5073799;28;20438;-70
2020/12/05 01:09:18;;;;;;;25.60;12.55;;;17.50;43.10;;;;;;5072392;28;20029;-70
2020/12/05 01:11:46;;;;;;;25.70;12.65;;;17.40;42.90;;;;;;5073767;28;20020;-70
2020/12/05 01:14:13;;;;;;;21.35;11.88;;;17.20;43.00;;;;;;5067885;28;20404;-70
2020/12/05 01:16:40;;;;;;;30.83;11.75;;;17.00;43.20;;;;;;5067934;28;20035;-69
2020/12/05 01:19:06;;;;;;;20.15;11.30;;;16.90;44.30;;;;;;5069694;28;20039;-70
2020/12/05 01:21:33;;;;;;;22.40;10.13;;;16.70;43.60;;;;;;5072622;28;20025;-69
2020/12/05 01:23:59;;;;;;;25.83;11.60;;;16.60;43.80;;;;;;5072010;28;20136;-70
2020/12/05 01:26:26;;;;;;;20.83;10.90;;;16.50;44.00;;;;;;5071003;28;20032;-70
2020/12/05 01:28:52;;;;;;;24.60;11.50;;;16.40;44.20;;;;;;5073920;28;20098;-70
2020/12/05 01:31:18;;;;;;;27.00;11.60;;;16.30;44.10;;;;;;5070403;28;20028;-72
2020/12/05 01:33:45;;;;;;;19.85;11.70;;;16.20;44.30;;;;;;5072326;28;20028;-70
2020/12/05 01:36:11;;;;;;;22.38;13.13;;;16.10;44.30;;;;;;5066838;28;20075;-70
2020/12/05 01:38:38;;;;;;;19.90;10.10;;;16.10;44.30;;;;;;5069669;28;20036;-70
2020/12/05 01:41:06;;;;;;;20.92;10.57;;;16.10;44.10;;;;;;5070354;28;20044;-70
2020/12/05 01:43:33;;;;;;;17.23;9.63;;;15.90;44.50;;;;;;5064280;28;20377;-70
2020/12/05 01:46:06;;;;;;;25.15;11.90;;;15.80;44.60;;;;;;5070112;28;20029;-70
2020/12/05 01:48:34;;;;;;;16.90;9.13;;;15.70;44.80;;;;;;5072235;28;20111;-72
2020/12/05 01:51:01;;;;;;;26.25;12.00;;;15.60;44.50;;;;;;5074111;28;20083;-70
2020/12/05 01:53:28;;;;;;;24.48;10.48;;;15.50;45.00;;;;;;5074351;28;20067;-70
2020/12/05 01:55:54;;;;;;;14.85;7.80;;;15.40;44.80;;;;;;5068458;28;20481;-70
2020/12/05 01:58:21;;;;;;;18.67;9.07;;;15.30;45.00;;;;;;5066001;28;20332;-70
2020/12/05 02:00:48;;;;;;;13.68;8.07;;;15.20;44.80;;;;;;5067056;28;20016;-70
2020/12/05 02:03:18;;;;;;;14.38;7.78;;;15.20;44.40;;;;;;5072493;28;20073;-70
2020/12/05 02:05:53;;;;;;;14.40;7.35;;;15.10;44.30;;;;;;5067068;28;20023;-70
2020/12/05 02:08:59;;;;;;;19.05;10.13;;;15.10;44.20;;;;;;5075330;28;20024;-70
2020/12/05 02:11:30;;;;;;;24.90;11.23;;;15.00;44.10;;;;;;5085185;28;20032;-70
2020/12/05 02:14:02;;;;;;;29.17;13.47;;;14.90;44.60;;;;;;5064777;28;20443;-70
2020/12/05 02:16:30;;;;;;;25.50;14.23;;;14.80;44.90;;;;;;5064540;28;20257;-70
2020/12/05 02:18:58;;;;;;;18.50;11.35;;;14.70;45.00;;;;;;5069126;28;20167;-70
2020/12/05 02:21:28;;;;;;;24.02;10.38;;;14.60;44.90;;;;;;5067952;28;20027;-70
2020/12/05 02:23:57;;;;;;;20.08;8.98;;;14.50;45.10;;;;;;5071416;28;20126;-70
2020/12/05 02:26:26;;;;;;;19.52;9.13;;;14.60;44.80;;;;;;5060183;28;20114;-71
2020/12/05 02:28:52;;;;;;;18.75;8.20;;;14.70;44.40;;;;;;5063721;28;20111;-70
2020/12/05 02:31:19;;;;;;;22.70;9.02;;;14.70;44.40;;;;;;5057917;28;20025;-70
2020/12/05 02:33:45;;;;;;;21.45;9.05;;;14.70;44.60;;;;;;5068828;28;20136;-70
2020/12/05 02:36:12;;;;;;;14.30;8.18;;;14.70;44.30;;;;;;5064239;28;20044;-70
2020/12/05 02:38:42;;;;;;;18.27;7.32;;;14.70;44.00;;;;;;5073353;28;20040;-70
2020/12/05 02:41:08;;;;;;;17.60;8.23;;;14.60;44.20;;;;;;5069552;28;20029;-71
2020/12/05 02:43:35;;;;;;;15.02;8.13;;;14.60;44.00;;;;;;5074906;28;20493;-70
2020/12/05 02:46:02;;;;;;;11.73;8.65;;;14.60;44.10;;;;;;5074235;28;20438;-70
2020/12/05 02:48:28;;;;;;;18.02;7.65;;;14.40;44.10;;;;;;5069972;28;20036;-70
2020/12/05 02:50:55;;;;;;;21.63;7.78;;;14.30;44.30;;;;;;5068166;28;20358;-70
2020/12/05 02:53:21;;;;;;;15.38;8.10;;;14.40;44.40;;;;;;5064173;28;20458;-71
2020/12/05 02:55:48;;;;;;;13.70;7.18;;;14.30;44.50;;;;;;5063611;28;20035;-69
2020/12/05 02:58:14;;;;;;;15.68;8.75;;;14.30;44.60;;;;;;5064307;28;20327;-70
2020/12/05 03:00:41;;;;;;;19.60;8.45;;;14.50;44.50;;;;;;5062950;28;20033;-70
2020/12/05 03:03:07;;;;;;;17.85;7.90;;;14.50;44.40;;;;;;5065216;28;20021;-69
2020/12/05 03:05:34;;;;;;;16.58;8.48;;;14.50;44.40;;;;;;5073035;28;20365;-70
2020/12/05 03:08:00;;;;;;;14.13;8.80;;;14.50;44.40;;;;;;5068993;28;20017;-70
2020/12/05 03:10:27;;;;;;;17.20;9.25;;;14.50;44.70;;;;;;5069031;28;20029;-69
2020/12/05 03:12:53;;;;;;;17.13;10.23;;;14.50;44.60;;;;;;5069578;28;21184;-70
2020/12/05 03:15:20;;;;;;;22.23;9.00;;;14.50;44.50;;;;;;5072430;28;20401;-70
2020/12/05 03:17:46;;;;;;;21.05;9.38;;;14.50;44.60;;;;;;5074993;28;20025;-71
2020/12/05 03:20:13;;;;;;;16.33;8.98;;;14.40;44.70;;;;;;5069124;28;20024;-70
2020/12/05 03:22:39;;;;;;;20.85;8.35;;;14.50;44.80;;;;;;5076729;28;20023;-70
2020/12/05 03:25:06;;;;;;;15.60;8.02;;;14.30;44.70;;;;;;5080507;28;20028;-70
2020/12/05 03:27:32;;;;;;;17.17;8.70;;;14.30;45.10;;;;;;5076420;28;20125;-70
2020/12/05 03:29:59;;;;;;;19.42;8.63;;;14.20;45.20;;;;;;5075112;28;20024;-70
2020/12/05 03:32:29;;;;;;;15.05;7.95;;;14.20;45.10;;;;;;5068494;28;20040;-70
2020/12/05 03:34:55;;;;;;;18.58;9.10;;;14.20;45.40;;;;;;5075354;28;20040;-70
2020/12/05 03:37:24;;;;;;;19.48;9.27;;;14.20;45.40;;;;;;5076235;28;20033;-70
2020/12/05 03:39:52;;;;;;;15.27;8.23;;;14.20;45.40;;;;;;5062231;28;20035;-70
2020/12/05 03:42:19;;;;;;;16.83;9.05;;;14.10;46.20;;;;;;5070487;28;20450;-70
2020/12/05 03:44:45;;;;;;;25.35;10.55;;;14.20;45.90;;;;;;5080349;28;20028;-71
2020/12/05 03:47:12;;;;;;;17.00;9.07;;;14.20;45.70;;;;;;5073389;28;20016;-71
2020/12/05 03:49:38;;;;;;;17.60;8.82;;;14.10;45.80;;;;;;5079900;28;20021;-70
2020/12/05 03:52:05;;;;;;;16.55;8.38;;;14.20;45.80;;;;;;5075225;28;20450;-70
2020/12/05 03:54:32;;;;;;;20.75;8.40;;;14.20;45.60;;;;;;5068590;28;20036;-70
2020/12/05 03:56:59;;;;;;;19.65;10.05;;;14.10;45.50;;;;;;5078385;28;20098;-70
2020/12/05 03:59:25;;;;;;;17.67;9.27;;;14.10;45.60;;;;;;5072315;28;20032;-70
2020/12/05 04:01:54;;;;;;;24.45;9.32;;;14.20;45.20;;;;;;5071793;28;20040;-70
2020/12/05 04:04:20;;;;;;;18.20;8.75;;;14.00;45.20;;;;;;5076836;28;20020;-72
2020/12/05 04:06:47;;;;;;;17.05;8.77;;;14.00;45.30;;;;;;5074984;28;20029;-71
2020/12/05 04:09:14;;;;;;;17.10;8.63;;;13.90;45.20;;;;;;5071761;28;20029;-73
2020/12/05 04:11:40;;;;;;;20.42;9.00;;;13.90;45.40;;;;;;5071855;28;20355;-72
2020/12/05 04:14:08;;;;;;;22.25;9.00;;;13.80;45.30;;;;;;5074153;28;20052;-72
2020/12/05 04:16:35;;;;;;;14.25;8.52;;;13.70;45.50;;;;;;5076811;28;21637;-74
2020/12/05 04:19:07;;;;;;;18.20;8.98;;;13.70;45.70;;;;;;5079747;28;20032;-77
2020/12/05 04:21:34;;;;;;;17.98;9.40;;;13.70;45.70;;;;;;5079349;28;20035;-73
2020/12/05 04:24:00;;;;;;;20.52;9.73;;;13.70;45.70;;;;;;5077114;28;20107;-72
2020/12/05 04:26:27;;;;;;;18.85;9.30;;;13.70;45.70;;;;;;5066003;28;20021;-72
2020/12/05 04:28:53;;;;;;;23.52;8.88;;;13.70;45.60;;;;;;5072209;28;21006;-72
2020/12/05 04:31:20;;;;;;;19.17;9.20;;;13.60;45.80;;;;;;5064669;28;20447;-72
2020/12/05 04:33:46;;;;;;;20.60;9.80;;;13.60;45.70;;;;;;5069640;28;20071;-72
2020/12/05 04:36:13;;;;;;;19.92;10.27;;;13.60;45.90;;;;;;5067698;28;20036;-73
2020/12/05 04:38:39;;;;;;;24.52;11.00;;;13.60;45.80;;;;;;5080733;28;20112;-72
2020/12/05 04:41:06;;;;;;;26.15;9.93;;;13.60;45.80;;;;;;5087414;28;20024;-72
2020/12/05 04:43:36;;;;;;;14.00;9.73;;;13.50;45.90;;;;;;5080103;28;20028;-72
2020/12/05 04:46:03;;;;;;;14.93;9.82;;;13.40;46.00;;;;;;5066392;28;20535;-72
2020/12/05 04:48:31;;;;;;;20.48;11.07;;;13.40;46.60;;;;;;5072748;28;20020;-72
2020/12/05 04:51:02;;;;;;;21.15;10.35;;;13.40;46.10;;;;;;5084803;28;20362;-72
2020/12/05 04:53:31;;;;;;;18.90;9.10;;;13.30;46.10;;;;;;5066213;28;20029;-71
2020/12/05 04:56:00;;;;;;;17.33;9.30;;;13.30;45.90;;;;;;5071877;28;20040;-71
2020/12/05 04:58:28;;;;;;;19.17;9.68;;;13.30;46.00;;;;;;5070491;28;20108;-70
2020/12/05 05:00:58;;;;;;;17.13;9.80;;;13.30;45.80;;;;;;5075108;28;20023;-71
2020/12/05 05:03:28;;;;;;;15.70;8.35;;;13.30;45.80;;;;;;5072702;28;20035;-70
2020/12/05 05:05:56;;;;;;;19.05;9.82;;;13.20;45.70;;;;;;5074138;28;20034;-71
2020/12/05 05:08:27;;;;;;;15.82;9.30;;;13.20;45.50;;;;;;5075590;28;20024;-70
2020/12/05 05:11:14;;;;;;;14.65;8.23;;;13.10;45.60;;;;;;5070784;28;20055;-71
2020/12/05 05:13:59;;;;;;;11.00;8.52;;;13.20;45.70;;;;;;5070780;28;20037;-71
2020/12/05 05:16:29;;;;;;;22.45;9.52;;;13.10;45.80;;;;;;5074605;28;20090;-71
2020/12/05 05:19:25;;;;;;;20.20;9.02;;;13.00;45.80;;;;;;5073660;28;20028;-71
2020/12/05 05:21:51;;;;;;;17.75;8.95;;;13.00;45.80;;;;;;5066619;28;20028;-70
2020/12/05 05:24:19;;;;;;;20.60;9.93;;;13.10;45.80;;;;;;5072595;28;20020;-70
2020/12/05 05:27:00;;;;;;;22.77;10.95;;;13.10;45.50;;;;;;5073250;28;20458;-70
2020/12/05 05:29:31;;;;;;;19.45;9.32;;;13.00;45.60;;;;;;5062361;28;20119;-70
2020/12/05 05:34:40;;;;;;;17.43;8.70;;;13.00;45.90;;;;;;5070324;28;20477;-70
2020/12/05 05:37:18;;;;;;;17.92;8.45;;;12.90;46.10;;;;;;5070189;28;20032;-70
2020/12/05 05:39:56;;;;;;;24.52;9.38;;;12.80;46.10;;;;;;5071053;28;20028;-70
2020/12/05 05:42:48;;;;;;;20.48;10.68;;;12.80;46.30;;;;;;5075060;28;20105;-70
2020/12/05 05:45:26;;;;;;;20.17;10.48;;;12.80;46.40;;;;;;5086854;28;20461;-70
2020/12/05 05:48:02;;;;;;;18.88;10.18;;;12.90;46.30;;;;;;5075116;28;20036;-70
2020/12/05 05:50:33;;;;;;;19.83;9.48;;;12.80;46.20;;;;;;5075522;28;20090;-70
2020/12/05 05:53:01;;;;;;;14.95;9.00;;;12.80;46.20;;;;;;5093498;28;20028;-70
2020/12/05 05:55:39;;;;;;;15.45;9.40;;;12.70;46.30;;;;;;5057360;28;20425;-70
2020/12/05 05:58:06;;;;;;;24.23;8.32;;;12.70;47.40;;;;;;5072309;28;20071;-70
2020/12/05 06:00:43;;;;;;;19.80;8.38;;;12.60;46.70;;;;;;5071885;28;20032;-70
2020/12/05 06:03:23;;;;;;;17.33;9.48;;;12.60;46.60;;;;;;5066614;28;20324;-70
2020/12/05 06:05:52;;;;;;;14.27;8.30;;;12.50;46.90;;;;;;5071395;28;20013;-70
2020/12/05 06:08:21;;;;;;;18.70;10.18;;;12.50;47.10;;;;;;5070572;28;20357;-70
2020/12/05 06:10:55;;;;;;;17.85;10.27;;;12.60;46.70;;;;;;5072567;28;20024;-70
2020/12/05 06:13:25;;;;;;;18.15;9.55;;;12.60;46.70;;;;;;5073946;28;20024;-70
2020/12/05 06:15:53;;;;;;;18.17;7.80;;;12.60;46.80;;;;;;5073161;28;20450;-71
2020/12/05 06:18:20;;;;;;;15.68;8.45;;;12.50;46.80;;;;;;5073038;28;20043;-70
2020/12/05 06:20:48;;;;;;;18.70;9.80;;;12.50;46.90;;;;;;5068651;28;20355;-71
2020/12/05 06:23:36;;;;;;;14.05;7.07;;;12.50;47.00;;;;;;5071143;28;20446;-70
2020/12/05 06:26:06;;;;;;;18.90;10.05;;;12.60;46.70;;;;;;5061943;28;20073;-71
2020/12/05 06:28:33;;;;;;;14.63;8.43;;;12.50;46.90;;;;;;5061040;28;20037;-70
2020/12/05 06:31:00;;;;;;;15.75;8.90;;;12.60;46.80;;;;;;5061904;28;20090;-71
2020/12/05 06:33:42;;;;;;;14.70;7.93;;;12.60;46.70;;;;;;5063410;28;20363;-70
2020/12/05 06:36:29;;;;;;;17.40;9.57;;;12.60;46.80;;;;;;5071462;28;20032;-71
2020/12/05 06:39:16;;;;;;;14.43;7.60;;;12.50;46.80;;;;;;5066221;28;20086;-71
2020/12/05 06:41:47;;;;;;;17.67;7.95;;;12.50;46.90;;;;;;5061573;28;20021;-71
2020/12/05 06:44:23;;;;;;;14.77;8.18;;;12.50;47.10;;;;;;5066208;28;20020;-71
2020/12/05 06:46:54;;;;;;;16.80;8.25;;;12.60;46.80;;;;;;5074648;28;20020;-71
2020/12/05 06:49:50;;;;;;;15.55;8.13;;;12.60;46.70;;;;;;5065774;28;20024;-71
2020/12/05 06:52:25;;;;;;;14.43;8.52;;;12.50;47.00;;;;;;5052026;28;20046;-71
2020/12/05 06:55:00;;;;;;;17.58;9.82;;;12.50;46.90;;;;;;5065749;28;20028;-71
2020/12/05 06:57:29;;;;;;;19.00;8.35;;;12.50;47.00;;;;;;5064261;28;20039;-70
2020/12/05 07:00:25;;;;;;;18.55;9.95;;;12.50;47.00;;;;;;5068906;28;20025;-71
2020/12/05 07:02:55;;;;;;;17.60;8.88;;;12.40;47.20;;;;;;5068961;28;20056;-70
2020/12/05 07:05:23;;;;;;;15.55;8.05;;;12.30;47.30;;;;;;5075706;28;20021;-71
2020/12/05 07:07:56;;;;;;;14.73;7.82;;;12.30;47.40;;;;;;5059363;28;20024;-71
2020/12/05 07:10:41;;;;;;;12.30;8.93;;;12.40;47.30;;;;;;5079718;28;20106;-70
2020/12/05 07:13:24;;;;;;;15.93;9.02;;;12.30;47.50;;;;;;5072144;28;20025;-71
2020/12/05 07:15:50;;;;;;;18.77;8.48;;;12.40;47.40;;;;;;5065732;28;20058;-70
2020/12/05 07:18:28;;;;;;;17.25;8.50;;;12.40;47.40;;;;;;5064030;28;20033;-70
2020/12/05 07:20:55;;;;;;;14.15;8.48;;;12.20;48.10;;;;;;5065059;28;20016;-70
2020/12/05 07:23:22;;;;;;;18.73;9.73;;;12.10;47.80;;;;;;5065321;28;20378;-70
2020/12/05 07:25:49;;;;;;;17.05;9.27;;;12.10;48.00;;;;;;5072297;28;20081;-70
2020/12/05 07:28:17;;;;;;;19.85;8.88;;;12.00;48.00;;;;;;5074278;28;20380;-70
2020/12/05 07:30:44;;;;;;;15.57;7.82;;;12.00;48.00;;;;;;5073949;28;20024;-70
2020/12/05 07:33:13;;;;;;;19.17;10.05;;;11.80;48.20;;;;;;5070462;28;20025;-70
2020/12/05 07:35:40;;;;;;;15.35;9.65;;;11.70;48.50;;;;;;5070487;28;20454;-70
2020/12/05 07:38:14;;;;;;;17.85;9.30;;;11.70;48.60;;;;;;5072448;28;20035;-70
2020/12/05 07:40:42;;;;;;;20.73;9.30;;;11.70;48.50;;;;;;5076120;28;20180;-71
2020/12/05 07:43:17;;;;;;;18.73;8.63;;;11.60;48.50;;;;;;5081133;28;20021;-70
2020/12/05 07:45:44;;;;;;;18.77;9.35;;;11.60;48.60;;;;;;5076623;28;20099;-70
2020/12/05 07:48:13;;;;;;;26.85;9.70;;;11.60;48.80;;;;;;5071084;28;20031;-70
2020/12/05 07:50:39;;;;;;;15.43;9.43;;;11.60;49.00;;;;;;5074806;28;20029;-71
2020/12/05 07:53:37;;;;;;;18.33;9.85;;;11.60;48.80;;;;;;5074321;28;20035;-70
2020/12/05 07:56:14;;;;;;;10.07;7.45;;;11.50;48.70;;;;;;5084760;28;20406;-71
2020/12/05 07:58:50;;;;;;;17.17;8.68;;;11.50;49.10;;;;;;5072369;28;20036;-70
2020/12/05 08:02:05;;;;;;;16.38;9.57;;;11.40;49.40;;;;;;5070657;28;20134;-71
2020/12/05 08:04:31;;;;;;;12.02;7.88;;;11.40;49.10;;;;;;5068696;28;20054;-71
2020/12/05 08:07:03;;;;;;;22.30;9.30;;;11.30;49.10;;;;;;5076815;28;20062;-70
2020/12/05 08:09:38;;;;;;;13.38;7.50;;;11.20;49.80;;;;;;5096188;28;20381;-70
2020/12/05 08:12:12;;;;;;;11.23;7.25;;;11.20;49.40;;;;;;5075578;28;20036;-70
2020/12/05 08:14:43;;;;;;;12.68;7.53;;;11.10;49.30;;;;;;5069727;28;20028;-70
2020/12/05 08:17:11;;;;;;;13.75;8.23;;;11.10;49.40;;;;;;5072831;28;20028;-70
2020/12/05 08:19:41;;;;;;;14.52;9.10;;;11.00;49.50;;;;;;5073759;28;20029;-73
2020/12/05 08:22:08;;;;;;;20.17;7.82;;;11.00;49.20;;;;;;5076639;28;20553;-70
2020/12/05 08:24:38;;;;;;;9.73;7.20;;;10.80;50.80;;;;;;5074277;28;20457;-71
2020/12/05 08:27:06;;;;;;;10.95;8.10;;;10.70;50.10;;;;;;5076266;28;20020;-70
2020/12/05 08:29:33;;;;;;;11.70;7.28;;;10.70;50.00;;;;;;5066697;28;20029;-70
2020/12/05 08:31:59;;;;;;;13.50;8.63;;;10.60;50.00;;;;;;5070135;28;20021;-70
2020/12/05 08:34:31;;;;;;;19.88;7.82;;;10.60;50.10;;;;;;5067641;28;20044;-71
2020/12/05 08:37:01;;;;;;;10.30;7.00;;;10.50;50.20;;;;;;5068192;28;20021;-71
2020/12/05 08:39:32;;;;;;;12.25;6.80;;;10.50;50.30;;;;;;5073861;28;20365;-71
2020/12/05 08:41:59;;;;;;;13.05;7.97;;;10.40;50.50;;;;;;5072127;28;20025;-70
2020/12/05 08:44:30;;;;;;;16.08;7.03;;;10.40;49.90;;;;;;5073750;28;20060;-70
2020/12/05 08:47:06;;;;;;;14.90;8.40;;;10.30;50.60;;;;;;5065580;28;20020;-70
2020/12/05 08:49:37;;;;;;;16.67;10.02;;;10.20;50.30;;;;;;5066762;28;20036;-70
2020/12/05 08:52:06;;;;;;;17.30;8.43;;;10.20;49.60;;;;;;5071569;28;20032;-70
2020/12/05 08:54:53;;;;;;;15.90;9.32;;;10.20;49.70;;;;;;5070709;28;20032;-70
2020/12/05 08:57:20;;;;;;;18.65;10.57;;;10.20;49.60;;;;;;5069428;28;20044;-70
2020/12/05 08:59:47;;;;;;;15.20;9.02;;;10.10;50.10;;;;;;5070835;28;20515;-70
2020/12/05 09:02:15;;;;;;;21.17;9.40;;;10.10;50.20;;;;;;5073306;28;20070;-70
2020/12/05 09:04:42;;;;;;;15.73;10.13;;;10.10;50.20;;;;;;5073980;28;20108;-70
2020/12/05 09:07:13;;;;;;;17.73;9.57;;;10.20;50.70;;;;;;5068830;28;20103;-70
2020/12/05 09:09:41;;;;;;;18.05;9.30;;;10.20;50.80;;;;;;5074632;28;20385;-70
2020/12/05 09:12:12;;;;;;;20.80;10.07;;;10.20;50.70;;;;;;5078419;28;20107;-70
2020/12/05 09:14:39;;;;;;;18.40;9.90;;;10.20;51.00;;;;;;5073776;28;20016;-70
2020/12/05 09:17:29;;;;;;;22.77;9.90;;;10.40;51.20;;;;;;5070704;28;20032;-70
2020/12/05 09:20:12;;;;;;;21.00;11.00;;;10.40;50.80;;;;;;5068552;28;20056;-71
2020/12/05 09:22:44;;;;;;;19.83;10.75;;;10.40;51.10;;;;;;5064399;28;20043;-70
2020/12/05 09:25:11;;;;;;;18.23;10.63;;;10.30;50.80;;;;;;5071443;28;20021;-70
2020/12/05 09:27:42;;;;;;;17.92;10.38;;;10.20;51.10;;;;;;5072572;28;20039;-70
2020/12/05 09:30:13;;;;;;;15.27;8.65;;;10.30;51.40;;;;;;5068855;28;20025;-70
2020/12/05 09:32:47;;;;;;;13.82;9.45;;;10.20;51.10;;;;;;5076261;28;20066;-70
2020/12/05 09:35:16;;;;;;;19.55;9.73;;;10.10;51.20;;;;;;5069675;28;20408;-70
2020/12/05 09:37:43;;;;;;;19.70;10.00;;;10.20;51.70;;;;;;5070976;28;20032;-70
2020/12/05 09:40:15;;;;;;;13.60;8.68;;;10.20;51.90;;;;;;5071544;28;20448;-70
2020/12/05 09:42:43;;;;;;;17.63;10.68;;;10.30;51.90;;;;;;5080909;28;20024;-70
2020/12/05 09:45:12;;;;;;;16.08;9.63;;;10.40;52.10;;;;;;5072223;28;20364;-70
2020/12/05 09:47:40;;;;;;;19.33;9.45;;;10.40;52.30;;;;;;5066586;28;20025;-70
2020/12/05 09:50:07;;;;;;;14.65;9.38;;;10.30;52.00;;;;;;5072196;28;20455;-70
2020/12/05 09:52:33;;;;;;;16.10;9.27;;;10.40;52.20;;;;;;5072896;28;20116;-70
2020/12/05 09:55:00;;;;;;;18.58;8.57;;;10.40;52.10;;;;;;5079095;28;20031;-70
2020/12/05 09:57:27;;;;;;;15.48;8.05;;;10.40;52.10;;;;;;5073898;28;20025;-70
2020/12/05 09:59:53;;;;;;;12.68;8.13;;;10.40;52.10;;;;;;5068679;28;20021;-70
2020/12/05 10:02:20;;;;;;;15.88;9.88;;;10.30;52.00;;;;;;5070202;28;20031;-70
2020/12/05 10:04:46;;;;;;;19.02;9.55;;;10.40;52.80;;;;;;5074625;28;20027;-70
2020/12/05 10:07:13;;;;;;;13.80;9.52;;;10.50;53.20;;;;;;5073289;28;20032;-70
2020/12/05 10:09:39;;;;;;;17.60;9.52;;;10.60;52.60;;;;;;5073384;28;20028;-70
2020/12/05 10:12:06;;;;;;;13.20;8.48;;;10.50;52.10;;;;;;5073061;28;20025;-70
2020/12/05 10:14:32;;;;;;;16.98;8.55;;;10.40;52.30;;;;;;5072061;28;20032;-71
2020/12/05 10:16:59;;;;;;;17.17;9.00;;;10.30;52.50;;;;;;5073990;28;20026;-70
2020/12/05 10:19:25;;;;;;;14.02;8.88;;;10.30;52.50;;;;;;5073684;28;20029;-70
2020/12/05 10:21:52;;;;;;;14.80;9.07;;;10.40;52.60;;;;;;5073160;28;20020;-70
2020/12/05 10:24:20;;;;;;;13.68;9.57;;;10.50;52.90;;;;;;5072968;28;20082;-70
2020/12/05 10:26:54;;;;;;;20.02;9.77;;;10.60;52.50;;;;;;5072518;28;20103;-70
2020/12/05 10:29:21;;;;;;;13.07;8.07;;;10.70;52.20;;;;;;5066085;28;20024;-70
2020/12/05 10:31:50;;;;;;;18.63;8.88;;;10.70;52.20;;;;;;5073570;28;20029;-70
2020/12/05 10:34:17;;;;;;;18.48;10.85;;;10.60;52.20;;;;;;5072779;28;20020;-70
2020/12/05 10:36:45;;;;;;;17.83;8.75;;;10.60;52.30;;;;;;5071228;28;20090;-69
2020/12/05 10:39:12;;;;;;;14.30;7.53;;;10.70;52.30;;;;;;5071046;28;20143;-70
2020/12/05 10:41:40;;;;;;;12.45;8.23;;;10.80;52.10;;;;;;5072962;28;20047;-70
2020/12/05 10:44:08;;;;;;;18.00;8.65;;;10.70;52.00;;;;;;5072710;28;20012;-70
2020/12/05 10:46:43;;;;;;;15.02;8.38;;;10.70;52.10;;;;;;5071798;28;20031;-70
2020/12/05 10:49:11;;;;;;;17.08;8.45;;;10.70;52.10;;;;;;5067869;28;20424;-70
2020/12/05 10:51:38;;;;;;;18.45;8.02;;;10.80;52.10;;;;;;5073877;28;20354;-69
2020/12/05 10:54:05;;;;;;;26.98;8.27;;;10.80;51.80;;;;;;5073500;28;20024;-70
2020/12/05 10:56:32;;;;;;;17.65;8.55;;;10.70;51.70;;;;;;5075253;28;20025;-70
2020/12/05 10:58:58;;;;;;;42.78;9.23;;;10.80;52.00;;;;;;5076179;28;20050;-69
2020/12/05 11:01:25;;;;;;;18.23;9.73;;;10.70;52.10;;;;;;5075926;28;20095;-70
2020/12/05 11:03:51;;;;;;;13.35;7.82;;;10.70;52.00;;;;;;5076075;28;20028;-70
2020/12/05 11:06:25;;;;;;;14.48;7.68;;;10.50;52.00;;;;;;5076957;28;20039;-70
2020/12/05 11:08:52;;;;;;;14.05;7.65;;;10.60;52.50;;;;;;5069206;28;20020;-70
2020/12/05 11:11:19;;;;;;;18.88;8.98;;;10.60;52.20;;;;;;5076585;28;20025;-70
2020/12/05 11:13:45;;;;;;;12.93;7.93;;;10.60;52.20;;;;;;5077284;28;20035;-70
2020/12/05 11:16:17;;;;;;;13.80;8.57;;;10.50;52.40;;;;;;5075884;28;20032;-70
2020/12/05 11:18:43;;;;;;;14.50;7.47;;;10.40;52.30;;;;;;5075664;28;20416;-70
2020/12/05 11:21:12;;;;;;;13.55;7.85;;;10.20;52.40;;;;;;5076293;28;20027;-70
2020/12/05 11:23:39;;;;;;;17.58;8.48;;;10.20;53.10;;;;;;5076393;28;20465;-70
2020/12/05 11:26:05;;;;;;;19.13;7.53;;;10.20;52.80;;;;;;5075375;28;20032;-70
2020/12/05 11:28:32;;;;;;;12.73;7.68;;;10.20;52.80;;;;;;5076252;28;20016;-70
2020/12/05 11:30:58;;;;;;;14.52;8.18;;;10.10;53.00;;;;;;5076237;28;20078;-70
2020/12/05 11:33:25;;;;;;;15.43;10.32;;;10.10;52.60;;;;;;5073937;28;20115;-70
2020/12/05 11:35:51;;;;;;;16.17;7.90;;;10.00;53.00;;;;;;5065259;28;20108;-70
2020/12/05 11:38:19;;;;;;;20.27;9.65;;;10.00;52.90;;;;;;5068504;28;20421;-70
2020/12/05 11:40:47;;;;;;;17.85;7.55;;;10.10;52.80;;;;;;5073940;28;20029;-70
2020/12/05 11:43:15;;;;;;;10.20;8.15;;;10.10;52.60;;;;;;5079087;28;20028;-70
2020/12/05 11:45:41;;;;;;;19.13;10.25;;;10.20;52.80;;;;;;5075104;28;20025;-71
2020/12/05 11:48:09;;;;;;;15.68;9.07;;;10.20;52.30;;;;;;5073043;28;20405;-71
2020/12/05 11:50:35;;;;;;;21.35;7.80;;;10.00;52.30;;;;;;5075030;28;20432;-70
2020/12/05 11:53:01;;;;;;;13.88;8.07;;;9.90;52.60;;;;;;5076733;28;20030;-71
2020/12/05 11:55:28;;;;;;;15.27;8.30;;;9.90;53.40;;;;;;5076882;28;20024;-70
2020/12/05 11:57:58;;;;;;;16.17;8.07;;;10.00;53.30;;;;;;5076856;28;20099;-70
2020/12/05 12:00:27;;;;;;;23.88;8.95;;;10.00;52.90;;;;;;5076047;28;20366;-70
2020/12/05 12:02:54;;;;;;;17.80;8.70;;;9.80;53.00;;;;;;5076271;28;20043;-70
2020/12/05 12:05:21;;;;;;;17.23;6.95;;;9.80;53.10;;;;;;5062021;28;20068;-70
2020/12/05 12:07:48;;;;;;;17.00;8.27;;;9.80;53.60;;;;;;5069031;28;20021;-71
2020/12/05 12:10:15;;;;;;;15.13;9.07;;;9.80;53.40;;;;;;5075797;28;20074;-70
2020/12/05 12:12:44;;;;;;;18.08;8.48;;;9.80;53.60;;;;;;5076810;28;20029;-70
2020/12/05 12:15:15;;;;;;;11.05;7.78;;;9.80;53.60;;;;;;5074110;28;20077;-71
2020/12/05 12:17:42;;;;;;;13.18;8.55;;;9.80;53.80;;;;;;5074251;28;20039;-70
2020/12/05 12:20:10;;;;;;;14.27;7.65;;;9.90;54.10;;;;;;5075647;28;20032;-70
2020/12/05 12:22:37;;;;;;;13.27;9.70;;;9.90;53.40;;;;;;5075851;28;20020;-70
2020/12/05 12:25:04;;;;;;;18.90;7.95;;;9.90;53.80;;;;;;5072419;28;20027;-70
2020/12/05 12:27:31;;;;;;;18.63;8.25;;;9.80;53.80;;;;;;5075285;28;20450;-71
2020/12/05 12:29:58;;;;;;;18.05;10.30;;;9.80;54.30;;;;;;5076164;28;20020;-70
2020/12/05 12:32:24;;;;;;;18.45;9.85;;;9.80;54.00;;;;;;5075752;28;20029;-70
2020/12/05 12:34:51;;;;;;;19.58;8.88;;;9.80;53.80;;;;;;5076117;28;20028;-70
2020/12/05 12:37:19;;;;;;;20.75;10.40;;;9.60;53.80;;;;;;5074222;28;20047;-70
2020/12/05 12:39:45;;;;;;;16.88;8.52;;;9.60;54.30;;;;;;5075545;28;20055;-71
2020/12/05 12:42:12;;;;;;;19.35;10.07;;;9.50;54.20;;;;;;5075486;28;20198;-70
2020/12/05 12:44:39;;;;;;;18.27;9.02;;;9.60;54.30;;;;;;5074760;28;20020;-71
2020/12/05 12:49:41;;;;;;;19.55;9.07;;;9.60;54.40;;;;;;5066644;28;20025;-70
2020/12/05 12:52:09;;;;;;;22.33;10.05;;;9.60;54.40;;;;;;5073139;28;20138;-71